Barbados Meteorological Services
Auto gathered TAF list
Powered by Apparatus software
For Flight AA1089
Contact Number 1-(246)-535-0021/2/3/4/5/6
WEB: http://www.barbadosweather.org

**********************************************

2019/08/20 18:59
TAF TLPL 201700Z 2018/2118 08012KT 9999 SCT026
TEMPO 2106/2112 SHRA BKN018


**********************************************
2019/08/20 17:42
TAF TJSJ 201634Z 2017/2112 09012KT P6SM VCTS SCT030CB SCT050
TEMPO 2017/2018 VRB15G25KT SCT025CB BKN040
FM202100 08008KT P6SM FEW035 SCT050


**********************************************
2019/08/20 12:49
TAF TFFR 201100Z 2012/2112 09010KT 9999 SCT025
BECMG 2022/2024 VRB03KT PROB30
TEMPO 2100/2112 4000 -SHRA BKN018TCU
BECMG 2110/2112 08006KT


**********************************************
2019/08/20 18:10
TAF TBPB 201700Z 2018/2118 08012KT 9999 FEW016CB SCT018 PROB30
TEMPO 2103/2109 TSRA SCT012CB BKN014


**********************************************
2019/08/20 18:06
TAF TAF TAPA 201700Z 2018/2118 07008KT 9999 SCT021 PROB30
TEMPO 2100/2112 SHRA


**********************************************
2019/08/20 06:30
TAF MYNN 200430Z 2006/2106 11010KT 9000 TSRA SCT018CB BKN200
FM201300 13015KT 9999 VCSH FEW015CB SCT018 BKN200 PROB30
TEMPO 2016/2020 13015G25KT 6000 SHRA SCT015CB SCT030


**********************************************
2019/08/20 12:30
TAF MTPP 201100Z 2012/2112 13010KT 9000 FEW020
FM201500 09014KT 9999 SCT024 PROB30
TEMPO 2102/2106 4000 SHRA SCT022CB BKN060
BECMG 2108/2111 VRB02KT 9000 FEW022


**********************************************
2019/08/20 18:54
TAF MDSD 201600Z 2018/2118 15010KT 9999 FEW022CB SCT025
BECMG 2101/2103 06005KT PROB40
TEMPO 2101/2107 7000 -TSRA FEW016CB BKN018 BKN070


**********************************************
2019/08/20 12:22
TAF KSFB 201120Z 2012/2112 10004KT P6SM FEW100 SCT250
FM201500 12007KT P6SM SCT030 SCT250
FM201700 12009KT P6SM VCTS SCT040CB BKN060
TEMPO 2018/2020 3SM TSRA SCT025 BKN035CB BKN100
FM202200 12008KT P6SM SCT050 SCT100 BKN250
FM210100 11003KT P6SM FEW100 SCT250


**********************************************
2019/08/20 15:15
TAF
AMD KPHL 201508Z 2015/2118 08006KT P6SM SCT070
FM201700 14006KT P6SM BKN060
FM202000 17007KT P6SM VCTS BKN050CB
FM210000 17007KT P6SM BKN035
FM210600 16004KT 6SM BR BKN030
FM210800 17004KT 4SM -SHRA BR BKN015
FM211100 18004KT 4SM BR OVC025
FM211700 20008KT P6SM BKN060


**********************************************
2019/08/20 15:15
TAF
AMD KPBI 201508Z 2015/2112 14012KT P6SM VCSH SCT025 BKN070
TEMPO 2018/2022 VRB15G25KT 4SM TSRA SCT025CB BKN050
FM210200 11006KT P6SM SCT025 SCT250


**********************************************
2019/08/20 15:12
TAF
AMD KOPF 201509Z 2015/2112 12010KT P6SM VCSH SCT025 SCT100
TEMPO 2018/2022 VRB15G25KT 4SM TSRA SCT025CB BKN050
FM210100 10005KT P6SM SCT025 SCT250


**********************************************


**********************************************
2019/08/20 15:09
TAF
AMD KMIA 201507Z 2015/2118 12012KT P6SM VCSH SCT025 SCT100
TEMPO 2018/2022 VRB15G25KT 4SM TSRA SCT025CB BKN050
FM210100 10005KT P6SM SCT025 SCT250


**********************************************
2019/08/20 15:06
TAF
AMD KMCO 201503Z 2015/2118 13008KT P6SM SCT030 SCT250
FM201700 12009KT P6SM VCTS SCT040CB BKN060
TEMPO 2018/2020 3SM TSRA SCT025 BKN035CB BKN100
FM202200 12006KT P6SM SCT050 SCT100 BKN250
FM211500 13007KT P6SM SCT030 SCT250


**********************************************
2019/08/20 16:50
TAF
AMD KJFK 201541Z 2016/2118 11004KT P6SM FEW045 BKN250
FM201700 14008KT P6SM SCT060 SCT110
FM201800 17008KT P6SM FEW035 SCT060 SCT150
FM210400 17005KT P6SM SCT035 BKN060
FM210800 17005KT P6SM VCSH SCT020 BKN040
FM211300 19009KT P6SM VCTS SCT020 BKN050CB BKN100


**********************************************
2019/08/20 12:22
TAF KJAX 201120Z 2012/2112 VRB04KT P6SM FEW080 BKN250
FM201500 15005KT P6SM SCT030 BKN250
FM201800 11010KT P6SM VCTS SCT050CB SCT250
TEMPO 2019/2022 VRB10G20KT 3SM TSRA BKN030CB
FM210200 VRB03KT P6SM BKN250


**********************************************
2019/08/20 15:09
TAF
AMD KFLL 201507Z 2015/2118 12012KT P6SM VCSH SCT025 SCT100
TEMPO 2018/2022 VRB15G25KT 4SM TSRA SCT025CB BKN050
FM210100 11006KT P6SM SCT025 SCT250


**********************************************
2019/08/20 16:45
TAF
AMD KEWR 201541Z 2016/2118 VRB05KT P6SM FEW035 SCT250
FM201700 13006KT P6SM SCT050
FM202300 16007KT P6SM FEW035 SCT060
FM210400 17004KT P6SM SCT035 BKN060
FM210700 17005KT P6SM VCSH BKN040
FM211300 19008KT P6SM VCTS BKN050CB BKN100


**********************************************
2019/08/20 16:58
TAF
AMD KCLT 201557Z 2016/2118 24004KT P6SM VCSH FEW020 SCT050 BKN100
FM201800 19007KT P6SM -SHRA BKN040
TEMPO 2019/2023 4SM TSRA OVC025CB
FM210400 17005KT P6SM BKN027
FM211000 15004KT P6SM BKN013
FM211400 20005KT P6SM BKN024
FM211600 22005KT P6SM BKN035


**********************************************
2019/08/20 16:09
TAF
AMD KATL 201606Z 2016/2118 10004KT P6SM SCT035
FM201800 15004KT P6SM VCSH BKN035
TEMPO 2020/2024 VRB15G25KT 4SM TSRA OVC025CB
FM210700 21004KT P6SM BKN250
FM211500 27005KT P6SM VCSH SCT025 SCT250


**********************************************